Time;durP1;ratioP1;P1;durP2;ratioP2;P2;SDS_P1;SDS_P2;PMS_P1;PMS_P2;Temp;Humidity;BMP_temperature;BMP_pressure;BME280_temperature;BME280_humidity;BME280_pressure;Samples;Min_cycle;Max_cycle;Signal;HPM_P1;HPM_P2
2023/05/19 00:00:18;;;;;;;0.50;0.50;;;;;;;;;;7388084;19;20213;-90
2023/05/19 00:02:45;;;;;;;0.47;0.47;;;;;;;;;;7390076;19;20252;-91
2023/05/19 00:05:13;;;;;;;0.30;0.30;;;;;;;;;;7388205;19;20547;-90
2023/05/19 00:07:42;;;;;;;0.30;0.30;;;;;;;;;;7389801;19;20211;-91
2023/05/19 00:10:10;;;;;;;0.73;0.60;;;;;;;;;;7387665;19;20188;-90
2023/05/19 00:12:37;;;;;;;1.60;0.83;;;;;;;;;;7389581;19;20535;-90
2023/05/19 00:15:05;;;;;;;0.70;0.70;;;;;;;;;;7366739;19;20199;-90
2023/05/19 00:17:33;;;;;;;0.40;0.40;;;;;;;;;;7384000;19;20213;-91
2023/05/19 00:20:00;;;;;;;0.43;0.43;;;;;;;;;;7387328;19;20203;-91
2023/05/19 00:22:27;;;;;;;0.30;0.30;;;;;;;;;;7394720;19;20601;-91
2023/05/19 00:24:58;;;;;;;0.30;0.30;;;;;;;;;;7372741;19;20203;-92
2023/05/19 00:27:26;;;;;;;0.60;0.60;;;;;;;;;;7369243;19;20236;-91
2023/05/19 00:29:54;;;;;;;1.23;0.40;;;;;;;;;;7354249;19;20220;-90
2023/05/19 00:32:29;;;;;;;0.30;0.30;;;;;;;;;;7373245;19;20188;-92
2023/05/19 00:35:05;;;;;;;0.97;0.77;;;;;;;;;;7360582;19;20769;-93
2023/05/19 00:37:47;;;;;;;0.30;0.30;;;;;;;;;;7349676;19;20204;-92
2023/05/19 00:40:43;;;;;;;0.40;0.40;;;;;;;;;;7332813;19;20192;-92
2023/05/19 00:43:22;;;;;;;0.40;0.40;;;;;;;;;;7387573;19;20224;-93
2023/05/19 00:45:52;;;;;;;0.30;0.30;;;;;;;;;;7372142;19;20740;-92
2023/05/19 00:48:29;;;;;;;0.37;0.37;;;;;;;;;;7390890;19;20200;-93
2023/05/19 00:51:13;;;;;;;0.53;0.53;;;;;;;;;;7352537;19;20199;-92
2023/05/19 00:53:42;;;;;;;0.30;0.30;;;;;;;;;;7391398;19;20284;-92
2023/05/19 00:56:32;;;;;;;0.60;0.60;;;;;;;;;;7348537;19;20192;-92
2023/05/19 00:59:39;;;;;;;4.47;0.80;;;;;;;;;;7328453;19;20200;-92
2023/05/19 01:02:28;;;;;;;0.30;0.30;;;;;;;;;;7369347;19;20203;-92
2023/05/19 01:05:17;;;;;;;0.50;0.50;;;;;;;;;;7337685;19;20196;-92
2023/05/19 01:17:09;;;;;;;0.37;0.37;;;;;;;;;;7396566;19;20602;-91
2023/05/19 01:23:23;;;;;;;0.47;0.47;;;;;;;;;;7362504;19;20196;-91
2023/05/19 01:26:41;;;;;;;0.57;0.57;;;;;;;;;;7368543;19;20517;-91
2023/05/19 01:30:24;;;;;;;0.30;0.30;;;;;;;;;;7345924;19;20197;-91
2023/05/19 01:37:10;;;;;;;;;;;;;;;;;;;;;
2023/05/19 01:41:06;;;;;;;0.33;0.33;;;;;;;;;;7349010;19;20198;-91
2023/05/19 01:47:58;;;;;;;0.40;0.40;;;;;;;;;;7392352;19;20180;-92
2023/05/19 01:50:55;;;;;;;0.80;0.80;;;;;;;;;;7326054;19;20241;-92
2023/05/19 01:54:31;;;;;;;0.30;0.30;;;;;;;;;;7347827;19;20239;-91
2023/05/19 01:57:44;;;;;;;0.47;0.47;;;;;;;;;;7387450;19;20595;-91
2023/05/19 02:04:03;;;;;;;0.20;0.20;;;;;;;;;;7387398;19;20677;-91
2023/05/19 02:07:15;;;;;;;0.30;0.30;;;;;;;;;;7389272;19;20145;-93
2023/05/19 02:10:16;;;;;;;0.30;0.30;;;;;;;;;;7394601;19;20161;-91
2023/05/19 02:13:39;;;;;;;0.50;0.50;;;;;;;;;;7397243;19;20219;-92
2023/05/19 02:16:23;;;;;;;0.30;0.30;;;;;;;;;;7398768;19;20178;-92
2023/05/19 02:19:13;;;;;;;0.40;0.40;;;;;;;;;;7388454;19;20517;-91
2023/05/19 02:26:21;;;;;;;0.57;0.57;;;;;;;;;;7388272;19;20171;-92
2023/05/19 02:32:36;;;;;;;0.50;0.50;;;;;;;;;;7370311;19;20194;-91
2023/05/19 02:35:33;;;;;;;0.30;0.30;;;;;;;;;;7345118;19;20266;-92
2023/05/19 02:38:25;;;;;;;0.30;0.30;;;;;;;;;;7355000;19;20251;-90
2023/05/19 02:57:25;;;;;;;;;;;;;;;;;;;;;
2023/05/19 03:28:58;;;;;;;0.40;0.40;;;;;;;;;;7393604;19;20165;-91
2023/05/19 03:32:09;;;;;;;;;;;;;;;;;;;;;
2023/05/19 03:35:14;;;;;;;0.30;0.30;;;;;;;;;;7391709;19;20144;-90
2023/05/19 03:37:53;;;;;;;0.80;0.80;;;;;;;;;;7391083;19;20168;-91
2023/05/19 03:44:15;;;;;;;0.30;0.30;;;;;;;;;;7392680;19;20153;-90
2023/05/19 03:46:51;;;;;;;0.30;0.30;;;;;;;;;;7390511;19;20156;-91
2023/05/19 03:50:11;;;;;;;0.30;0.30;;;;;;;;;;7390782;19;20168;-90
2023/05/19 03:56:46;;;;;;;1.03;0.70;;;;;;;;;;7397908;19;20147;-90
2023/05/19 03:59:20;;;;;;;0.30;0.30;;;;;;;;;;7395315;19;20183;-91
2023/05/19 04:01:51;;;;;;;0.40;0.40;;;;;;;;;;7400537;19;20159;-91
2023/05/19 04:04:21;;;;;;;0.30;0.30;;;;;;;;;;7398049;19;20152;-91
2023/05/19 04:06:48;;;;;;;0.33;0.33;;;;;;;;;;7397648;19;20141;-91
2023/05/19 04:09:22;;;;;;;0.37;0.37;;;;;;;;;;7396649;19;20164;-90
2023/05/19 04:12:35;;;;;;;0.30;0.30;;;;;;;;;;7397258;19;20196;-91
2023/05/19 04:15:21;;;;;;;0.67;0.67;;;;;;;;;;7395222;19;20163;-89
2023/05/19 04:17:56;;;;;;;0.60;0.60;;;;;;;;;;7397535;19;20276;-91
2023/05/19 04:20:24;;;;;;;0.30;0.30;;;;;;;;;;7398093;19;20160;-91
2023/05/19 04:23:00;;;;;;;0.43;0.43;;;;;;;;;;7397882;19;20165;-91
2023/05/19 04:25:38;;;;;;;0.30;0.30;;;;;;;;;;7397313;19;20149;-91
2023/05/19 04:28:12;;;;;;;0.50;0.50;;;;;;;;;;7396807;19;20172;-91
2023/05/19 04:34:56;;;;;;;0.50;0.50;;;;;;;;;;7398391;19;20156;-90
2023/05/19 04:38:35;;;;;;;;;;;;;;;;;;;;;
2023/05/19 04:41:19;;;;;;;0.30;0.30;;;;;;;;;;7398036;19;20143;-91
2023/05/19 04:44:30;;;;;;;0.80;0.67;;;;;;;;;;7397268;19;20144;-90
2023/05/19 04:47:36;;;;;;;0.40;0.40;;;;;;;;;;7395179;19;20153;-89
2023/05/19 04:50:28;;;;;;;0.30;0.30;;;;;;;;;;7395344;19;20137;-91
2023/05/19 04:53:17;;;;;;;0.40;0.40;;;;;;;;;;7399566;19;20192;-91
2023/05/19 04:59:05;;;;;;;0.60;0.60;;;;;;;;;;7395165;19;20185;-91
2023/05/19 05:01:39;;;;;;;0.37;0.37;;;;;;;;;;7395330;19;20144;-92
2023/05/19 05:04:09;;;;;;;0.30;0.30;;;;;;;;;;7395074;19;20160;-91
2023/05/19 05:07:08;;;;;;;0.60;0.40;;;;;;;;;;7393457;19;20177;-91
2023/05/19 07:38:33;;;;;;;0.33;0.33;;;;;;;;;;7392926;19;20148;-90
2023/05/19 07:41:00;;;;;;;0.80;0.80;;;;;;;;;;7393324;19;20163;-91
2023/05/19 07:44:10;;;;;;;;;;;;;;;;;;;;;
2023/05/19 07:49:51;;;;;;;0.70;0.70;;;;;;;;;;7392116;19;20152;-90
2023/05/19 07:52:37;;;;;;;0.32;0.32;;;;;;;;;;7385556;19;20232;-91
2023/05/19 07:55:32;;;;;;;0.50;0.50;;;;;;;;;;7388256;19;20144;-91
2023/05/19 07:57:59;;;;;;;0.43;0.43;;;;;;;;;;7389650;19;20149;-91
2023/05/19 08:00:52;;;;;;;1.67;1.08;;;;;;;;;;7387154;19;20194;-90
2023/05/19 08:03:42;;;;;;;1.75;0.65;;;;;;;;;;7386756;19;20141;-90
2023/05/19 08:06:10;;;;;;;0.60;0.60;;;;;;;;;;7387802;19;20481;-91
2023/05/19 08:08:36;;;;;;;0.63;0.63;;;;;;;;;;7384144;19;20631;-91
2023/05/19 08:11:03;;;;;;;0.50;0.50;;;;;;;;;;7385442;19;20129;-89
2023/05/19 08:14:02;;;;;;;0.82;0.82;;;;;;;;;;7388800;19;20149;-90
2023/05/19 08:16:29;;;;;;;0.50;0.50;;;;;;;;;;7391579;19;20161;-89
2023/05/19 08:19:41;;;;;;;0.40;0.40;;;;;;;;;;7388429;19;20193;-90
2023/05/19 08:22:08;;;;;;;0.60;0.60;;;;;;;;;;7391877;19;20156;-90
2023/05/19 08:24:35;;;;;;;0.40;0.40;;;;;;;;;;7386662;19;20133;-90
2023/05/19 08:27:03;;;;;;;1.00;0.95;;;;;;;;;;7389115;19;20141;-90
2023/05/19 08:29:30;;;;;;;0.75;0.75;;;;;;;;;;7389346;19;20589;-92
2023/05/19 08:31:57;;;;;;;0.35;0.35;;;;;;;;;;7390544;19;20156;-90
2023/05/19 09:08:35;;;;;;;;;;;;;;;;;;;;;
2023/05/19 09:11:42;;;;;;;0.47;0.47;;;;;;;;;;7406640;19;20571;-91
2023/05/19 09:26:49;;;;;;;0.60;0.60;;;;;;;;;;7399730;19;20157;-92
2023/05/19 09:29:16;;;;;;;0.57;0.57;;;;;;;;;;7396014;19;20149;-92
2023/05/19 09:32:04;;;;;;;1.20;1.10;;;;;;;;;;7396387;19;20148;-92
2023/05/19 09:34:31;;;;;;;0.70;0.70;;;;;;;;;;7396993;19;20144;-92
2023/05/19 09:36:58;;;;;;;0.43;0.43;;;;;;;;;;7394398;19;20225;-92
2023/05/19 09:39:27;;;;;;;0.75;0.75;;;;;;;;;;7394124;19;20168;-92
2023/05/19 09:45:00;;;;;;;0.43;0.43;;;;;;;;;;7395810;19;20143;-91
2023/05/19 09:47:36;;;;;;;0.38;0.38;;;;;;;;;;7391546;19;20880;-89
2023/05/19 09:50:21;;;;;;;0.57;0.55;;;;;;;;;;7398398;19;20136;-90
2023/05/19 09:53:03;;;;;;;0.68;0.68;;;;;;;;;;7390384;19;20200;-90
2023/05/19 10:10:08;;;;;;;2.25;0.80;;;;;;;;;;7397738;19;20620;-91
2023/05/19 10:13:32;;;;;;;0.55;0.55;;;;;;;;;;7393353;19;20161;-90
2023/05/19 10:16:00;;;;;;;0.88;0.88;;;;;;;;;;7393216;19;20196;-92
2023/05/19 10:18:28;;;;;;;4.68;0.60;;;;;;;;;;7393124;19;20196;-91
2023/05/19 10:20:56;;;;;;;0.80;0.80;;;;;;;;;;7395104;19;20140;-91
2023/05/19 10:23:24;;;;;;;0.52;0.52;;;;;;;;;;7394792;19;20161;-92
2023/05/19 10:25:58;;;;;;;0.50;0.50;;;;;;;;;;7393965;19;20154;-92
2023/05/19 10:28:36;;;;;;;0.65;0.65;;;;;;;;;;7396637;19;20152;-91
2023/05/19 10:31:35;;;;;;;0.60;0.60;;;;;;;;;;7396752;19;20602;-91
2023/05/19 10:34:26;;;;;;;1.15;1.05;;;;;;;;;;7394395;19;20151;-91
2023/05/19 10:47:24;;;;;;;0.75;0.75;;;;;;;;;;7387717;19;20137;-91
2023/05/19 10:49:52;;;;;;;0.35;0.35;;;;;;;;;;7384173;19;20208;-90
2023/05/19 10:52:21;;;;;;;0.50;0.50;;;;;;;;;;7391551;19;20145;-90
2023/05/19 10:54:48;;;;;;;0.52;0.52;;;;;;;;;;7391632;19;20151;-90
2023/05/19 10:57:19;;;;;;;0.50;0.50;;;;;;;;;;7386214;19;20609;-89
2023/05/19 10:59:49;;;;;;;0.73;0.73;;;;;;;;;;7400915;19;20482;-90
2023/05/19 11:02:58;;;;;;;0.43;0.43;;;;;;;;;;7402648;19;20137;-90
2023/05/19 11:05:38;;;;;;;0.52;0.52;;;;;;;;;;7390739;19;20153;-89
2023/05/19 11:08:21;;;;;;;0.77;0.77;;;;;;;;;;7387779;19;20224;-89
2023/05/19 11:11:38;;;;;;;0.95;0.95;;;;;;;;;;7393518;19;20141;-89
2023/05/19 11:17:41;;;;;;;0.30;0.30;;;;;;;;;;7383801;19;20169;-91
2023/05/19 11:23:44;;;;;;;0.75;0.75;;;;;;;;;;7392110;19;20172;-91
2023/05/19 11:26:11;;;;;;;0.63;0.63;;;;;;;;;;7390987;19;20137;-91
2023/05/19 11:28:38;;;;;;;0.40;0.40;;;;;;;;;;7392044;19;20165;-89
2023/05/19 11:31:06;;;;;;;0.60;0.60;;;;;;;;;;7396501;19;20156;-90
2023/05/19 11:34:14;;;;;;;0.85;0.85;;;;;;;;;;7408979;19;20225;-88
2023/05/19 11:37:04;;;;;;;0.40;0.40;;;;;;;;;;7399183;19;20141;-90
2023/05/19 11:39:36;;;;;;;0.77;0.77;;;;;;;;;;7393814;19;20148;-89
2023/05/19 11:42:35;;;;;;;0.60;0.60;;;;;;;;;;7402908;19;20305;-91
2023/05/19 11:45:03;;;;;;;0.68;0.68;;;;;;;;;;7402873;19;20149;-94
2023/05/19 11:47:34;;;;;;;1.13;0.88;;;;;;;;;;7413754;19;20164;-94
2023/05/19 11:50:12;;;;;;;1.65;0.50;;;;;;;;;;7389878;19;20141;-94
2023/05/19 11:52:43;;;;;;;0.50;0.50;;;;;;;;;;7389931;19;20145;-94
2023/05/19 11:55:36;;;;;;;0.65;0.65;;;;;;;;;;7395437;19;20140;-93
2023/05/19 12:01:24;;;;;;;0.68;0.68;;;;;;;;;;7389974;19;20141;-91
2023/05/19 12:04:00;;;;;;;0.40;0.40;;;;;;;;;;7392508;19;20151;-93
2023/05/19 12:07:10;;;;;;;0.50;0.50;;;;;;;;;;7384176;19;20176;-92
2023/05/19 12:10:01;;;;;;;0.40;0.40;;;;;;;;;;7386818;19;20163;-92
2023/05/19 12:13:07;;;;;;;;;;;;;;;;;;;;;
2023/05/19 12:15:40;;;;;;;0.73;0.73;;;;;;;;;;7395934;19;20749;-91
2023/05/19 12:18:10;;;;;;;1.00;1.00;;;;;;;;;;7399989;19;20149;-92
2023/05/19 12:21:04;;;;;;;0.60;0.60;;;;;;;;;;7400802;19;20149;-92
2023/05/19 12:23:31;;;;;;;0.47;0.47;;;;;;;;;;7390953;19;20137;-91
2023/05/19 12:25:59;;;;;;;1.00;1.00;;;;;;;;;;7400167;19;20128;-91
2023/05/19 12:31:23;;;;;;;0.57;0.57;;;;;;;;;;7392925;19;20151;-87
2023/05/19 12:33:50;;;;;;;1.48;0.50;;;;;;;;;;7392436;19;20538;-84
2023/05/19 12:36:17;;;;;;;0.95;0.95;;;;;;;;;;7397554;19;20144;-87
2023/05/19 12:38:44;;;;;;;0.65;0.65;;;;;;;;;;7391215;19;20795;-89
2023/05/19 12:41:11;;;;;;;0.50;0.50;;;;;;;;;;7391181;19;20488;-88
2023/05/19 12:43:38;;;;;;;0.32;0.32;;;;;;;;;;7389020;19;20493;-89
2023/05/19 12:46:12;;;;;;;0.93;0.93;;;;;;;;;;7395660;19;20145;-89
2023/05/19 12:48:42;;;;;;;0.65;0.65;;;;;;;;;;7395961;19;20155;-89
2023/05/19 12:51:10;;;;;;;0.93;0.93;;;;;;;;;;7398692;19;20204;-89
2023/05/19 12:53:37;;;;;;;0.93;0.93;;;;;;;;;;7398826;19;20181;-89
2023/05/19 12:56:14;;;;;;;1.08;0.98;;;;;;;;;;7398250;19;20240;-89
2023/05/19 12:58:41;;;;;;;0.60;0.60;;;;;;;;;;7399665;19;20152;-90
2023/05/19 13:01:16;;;;;;;0.52;0.52;;;;;;;;;;7395137;19;20537;-89
2023/05/19 13:03:43;;;;;;;0.95;0.95;;;;;;;;;;7396846;19;20637;-89
2023/05/19 13:06:10;;;;;;;0.90;0.90;;;;;;;;;;7399995;19;20518;-88
2023/05/19 13:08:38;;;;;;;0.55;0.55;;;;;;;;;;7403966;19;20157;-86
2023/05/19 13:11:05;;;;;;;0.65;0.65;;;;;;;;;;7401709;19;20143;-86
2023/05/19 13:13:32;;;;;;;3.00;1.33;;;;;;;;;;7401555;19;20583;-87
2023/05/19 13:15:58;;;;;;;0.65;0.65;;;;;;;;;;7396099;19;20200;-86
2023/05/19 13:18:26;;;;;;;0.70;0.70;;;;;;;;;;7396733;19;20168;-88
2023/05/19 13:20:53;;;;;;;0.43;0.43;;;;;;;;;;7398417;19;20148;-88
2023/05/19 13:23:20;;;;;;;0.50;0.50;;;;;;;;;;7392545;19;20645;-88
2023/05/19 13:25:46;;;;;;;2.08;1.55;;;;;;;;;;7390081;19;20519;-88
2023/05/19 13:28:13;;;;;;;1.00;1.00;;;;;;;;;;7396422;19;20168;-88
2023/05/19 13:30:42;;;;;;;0.57;0.57;;;;;;;;;;7408132;19;20167;-89
2023/05/19 13:37:02;;;;;;;0.73;0.73;;;;;;;;;;7401334;19;20124;-91
2023/05/19 13:40:31;;;;;;;1.95;0.60;;;;;;;;;;7396597;19;20204;-92
2023/05/19 13:57:59;;;;;;;0.40;0.40;;;;;;;;;;7319688;19;20160;-94
2023/05/19 14:00:35;;;;;;;0.85;0.85;;;;;;;;;;7423356;19;20144;-95
2023/05/19 14:03:19;;;;;;;0.60;0.60;;;;;;;;;;7420060;19;20158;-94
2023/05/19 14:06:02;;;;;;;0.90;0.90;;;;;;;;;;7409496;19;20156;-94
2023/05/19 14:08:32;;;;;;;1.35;0.85;;;;;;;;;;7420435;19;20129;-94
2023/05/19 14:11:00;;;;;;;1.02;1.00;;;;;;;;;;7419625;19;20125;-94
2023/05/19 14:13:28;;;;;;;0.68;0.68;;;;;;;;;;7416456;19;20125;-94
2023/05/19 14:16:00;;;;;;;0.98;0.98;;;;;;;;;;7413919;19;20121;-93
2023/05/19 14:18:27;;;;;;;1.30;0.75;;;;;;;;;;7423410;19;20137;-95
2023/05/19 14:20:55;;;;;;;0.95;0.95;;;;;;;;;;7424941;19;20168;-95
2023/05/19 14:23:22;;;;;;;0.32;0.32;;;;;;;;;;7425585;19;20125;-94
2023/05/19 14:25:48;;;;;;;0.40;0.40;;;;;;;;;;7424913;19;20170;-94
2023/05/19 14:28:15;;;;;;;0.63;0.63;;;;;;;;;;7425120;19;20128;-95
2023/05/19 14:30:42;;;;;;;0.60;0.60;;;;;;;;;;7427182;19;20132;-95
2023/05/19 14:33:10;;;;;;;0.50;0.50;;;;;;;;;;7424160;19;20137;-95
2023/05/19 14:35:36;;;;;;;0.50;0.50;;;;;;;;;;7420290;19;20175;-94
2023/05/19 14:38:03;;;;;;;0.40;0.40;;;;;;;;;;7427176;19;20133;-95
2023/05/19 14:40:30;;;;;;;0.95;0.80;;;;;;;;;;7419849;19;20137;-95
2023/05/19 14:42:57;;;;;;;0.43;0.43;;;;;;;;;;7425176;19;20177;-95
2023/05/19 14:45:24;;;;;;;0.75;0.75;;;;;;;;;;7424402;19;20251;-94
2023/05/19 14:47:51;;;;;;;0.98;0.98;;;;;;;;;;7423522;19;20159;-94
2023/05/19 14:50:18;;;;;;;0.85;0.65;;;;;;;;;;7423859;19;20150;-94
2023/05/19 14:52:45;;;;;;;0.35;0.35;;;;;;;;;;7412250;19;20161;-93
2023/05/19 14:55:55;;;;;;;0.35;0.35;;;;;;;;;;7419758;19;20156;-96
2023/05/19 15:05:29;;;;;;;0.40;0.40;;;;;;;;;;7400055;19;20143;-91
2023/05/19 15:08:51;;;;;;;0.30;0.30;;;;;;;;;;7401651;19;20160;-89
2023/05/19 15:11:21;;;;;;;0.80;0.80;;;;;;;;;;7405887;19;20148;-89
2023/05/19 15:13:59;;;;;;;0.50;0.50;;;;;;;;;;7420505;19;20151;-89
2023/05/19 15:16:30;;;;;;;0.50;0.50;;;;;;;;;;7398120;19;20149;-89
2023/05/19 15:18:58;;;;;;;0.75;0.75;;;;;;;;;;7403469;19;20653;-88
2023/05/19 15:28:40;;;;;;;0.63;0.63;;;;;;;;;;7408429;19;20516;-95
2023/05/19 15:31:07;;;;;;;0.68;0.68;;;;;;;;;;7408966;19;20128;-95
2023/05/19 15:33:41;;;;;;;0.60;0.60;;;;;;;;;;7426922;19;20153;-96
2023/05/19 15:36:30;;;;;;;0.75;0.75;;;;;;;;;;7425102;19;20137;-96
2023/05/19 15:38:57;;;;;;;1.42;0.98;;;;;;;;;;7425186;19;20161;-96
2023/05/19 15:41:27;;;;;;;0.55;0.55;;;;;;;;;;7425346;19;20133;-96
2023/05/19 15:44:01;;;;;;;0.75;0.75;;;;;;;;;;7423843;19;20175;-96
2023/05/19 15:46:33;;;;;;;0.57;0.57;;;;;;;;;;7425408;19;20141;-96
2023/05/19 15:52:33;;;;;;;0.60;0.60;;;;;;;;;;7425843;19;20149;-96
2023/05/19 15:55:30;;;;;;;0.85;0.85;;;;;;;;;;7425521;19;20176;-96
2023/05/19 15:57:56;;;;;;;0.47;0.47;;;;;;;;;;7426417;19;20148;-96
2023/05/19 16:00:23;;;;;;;0.50;0.50;;;;;;;;;;7420398;19;20324;-96
2023/05/19 16:02:50;;;;;;;0.68;0.68;;;;;;;;;;7425828;19;20121;-95
2023/05/19 16:05:17;;;;;;;0.57;0.57;;;;;;;;;;7415381;19;20216;-95
2023/05/19 16:07:44;;;;;;;0.70;0.70;;;;;;;;;;7412503;19;20125;-95
2023/05/19 16:10:11;;;;;;;0.70;0.70;;;;;;;;;;7418603;19;20140;-93
2023/05/19 16:12:38;;;;;;;1.00;1.00;;;;;;;;;;7393468;19;20145;-94
2023/05/19 16:15:05;;;;;;;0.50;0.50;;;;;;;;;;7398588;19;20173;-94
2023/05/19 16:17:33;;;;;;;0.73;0.73;;;;;;;;;;7388086;19;20229;-96
2023/05/19 16:20:00;;;;;;;1.33;0.75;;;;;;;;;;7415364;19;20144;-95
2023/05/19 16:22:28;;;;;;;0.50;0.50;;;;;;;;;;7420639;19;20133;-96
2023/05/19 16:24:56;;;;;;;1.08;1.05;;;;;;;;;;7418705;19;20169;-94
2023/05/19 16:27:23;;;;;;;0.60;0.60;;;;;;;;;;7419783;19;20155;-95
2023/05/19 16:29:56;;;;;;;0.52;0.52;;;;;;;;;;7421810;19;20155;-96
2023/05/19 16:43:22;;;;;;;0.40;0.40;;;;;;;;;;7412274;19;20196;-96
2023/05/19 16:45:55;;;;;;;1.75;1.02;;;;;;;;;;7428139;19;20169;-96
2023/05/19 16:48:24;;;;;;;0.40;0.40;;;;;;;;;;7429077;19;20173;-96
2023/05/19 16:50:52;;;;;;;0.85;0.85;;;;;;;;;;7417011;19;20140;-94
2023/05/19 16:53:19;;;;;;;0.77;0.77;;;;;;;;;;7419699;19;20148;-93
2023/05/19 16:55:46;;;;;;;0.50;0.50;;;;;;;;;;7418169;19;20173;-95
2023/05/19 16:58:13;;;;;;;0.70;0.70;;;;;;;;;;7417877;19;20128;-94
2023/05/19 17:00:40;;;;;;;1.27;0.80;;;;;;;;;;7419199;19;20132;-96
2023/05/19 17:03:42;;;;;;;0.95;0.95;;;;;;;;;;7422005;19;20156;-96
2023/05/19 17:06:14;;;;;;;0.88;0.88;;;;;;;;;;7424708;19;20136;-95
2023/05/19 17:08:42;;;;;;;0.43;0.43;;;;;;;;;;7425530;19;20140;-96
2023/05/19 17:11:09;;;;;;;0.60;0.60;;;;;;;;;;7428586;19;20129;-96
2023/05/19 17:13:36;;;;;;;0.60;0.60;;;;;;;;;;7425088;19;20137;-94
2023/05/19 17:16:03;;;;;;;1.52;1.42;;;;;;;;;;7423793;19;20144;-95
2023/05/19 17:18:30;;;;;;;1.27;1.15;;;;;;;;;;7425713;19;20140;-95
2023/05/19 17:21:02;;;;;;;1.23;1.23;;;;;;;;;;7426254;19;20141;-95
2023/05/19 17:23:29;;;;;;;0.57;0.57;;;;;;;;;;7425732;19;20232;-95
2023/05/19 17:25:56;;;;;;;1.17;1.15;;;;;;;;;;7421620;19;20164;-95
2023/05/19 17:28:23;;;;;;;0.80;0.80;;;;;;;;;;7421888;19;20125;-96
2023/05/19 17:30:50;;;;;;;0.77;0.77;;;;;;;;;;7425913;19;20192;-96
2023/05/19 17:33:17;;;;;;;0.43;0.43;;;;;;;;;;7430479;19;20146;-95
2023/05/19 17:35:44;;;;;;;0.70;0.70;;;;;;;;;;7430252;19;20166;-95
2023/05/19 17:38:11;;;;;;;1.42;1.33;;;;;;;;;;7425326;19;20149;-95
2023/05/19 17:40:38;;;;;;;0.55;0.55;;;;;;;;;;7429467;19;20135;-96
2023/05/19 17:43:07;;;;;;;0.93;0.93;;;;;;;;;;7431602;19;20125;-96
2023/05/19 17:45:34;;;;;;;1.13;1.13;;;;;;;;;;7428002;19;20164;-96
2023/05/19 17:48:03;;;;;;;0.70;0.70;;;;;;;;;;7426904;19;20148;-96
2023/05/19 17:50:30;;;;;;;1.05;0.95;;;;;;;;;;7429678;19;20129;-96
2023/05/19 17:53:05;;;;;;;0.70;0.70;;;;;;;;;;7424095;19;20184;-96
2023/05/19 17:55:33;;;;;;;0.73;0.73;;;;;;;;;;7431021;19;20169;-96
2023/05/19 17:58:00;;;;;;;0.65;0.65;;;;;;;;;;7430996;19;20137;-96
2023/05/19 18:00:28;;;;;;;0.77;0.77;;;;;;;;;;7435124;19;20136;-96
2023/05/19 18:02:56;;;;;;;0.63;0.63;;;;;;;;;;7432275;19;20152;-96
2023/05/19 18:05:27;;;;;;;0.95;0.95;;;;;;;;;;7429989;19;20168;-95
2023/05/19 18:07:54;;;;;;;0.80;0.77;;;;;;;;;;7427524;19;20156;-96
2023/05/19 18:10:21;;;;;;;0.70;0.70;;;;;;;;;;7427822;19;20137;-96
2023/05/19 18:12:48;;;;;;;0.52;0.52;;;;;;;;;;7427966;19;20137;-96
2023/05/19 18:15:15;;;;;;;0.80;0.80;;;;;;;;;;7424177;19;20173;-96
2023/05/19 18:17:41;;;;;;;0.80;0.80;;;;;;;;;;7424970;19;20152;-96
2023/05/19 18:20:09;;;;;;;0.68;0.68;;;;;;;;;;7428862;19;20172;-96
2023/05/19 18:22:36;;;;;;;0.98;0.98;;;;;;;;;;7424715;19;20141;-96
2023/05/19 18:25:03;;;;;;;1.50;0.93;;;;;;;;;;7421623;19;20164;-94
2023/05/19 18:27:32;;;;;;;0.55;0.55;;;;;;;;;;7425821;19;20125;-96
2023/05/19 18:29:58;;;;;;;0.77;0.77;;;;;;;;;;7426590;19;20180;-96
2023/05/19 18:32:25;;;;;;;0.52;0.52;;;;;;;;;;7427535;19;20160;-96
2023/05/19 18:34:52;;;;;;;0.85;0.85;;;;;;;;;;7420999;19;20176;-96
2023/05/19 18:37:19;;;;;;;0.63;0.63;;;;;;;;;;7425123;19;20146;-96
2023/05/19 18:39:46;;;;;;;0.55;0.55;;;;;;;;;;7426003;19;20209;-96
2023/05/19 18:42:13;;;;;;;1.48;1.38;;;;;;;;;;7423829;19;20137;-96
2023/05/19 18:44:41;;;;;;;0.55;0.55;;;;;;;;;;7424445;19;20173;-96
2023/05/19 18:47:08;;;;;;;0.85;0.65;;;;;;;;;;7423668;19;20166;-96
2023/05/19 18:49:35;;;;;;;0.60;0.60;;;;;;;;;;7423699;19;20158;-96
2023/05/19 18:52:02;;;;;;;0.77;0.77;;;;;;;;;;7424556;19;20133;-95
2023/05/19 18:54:31;;;;;;;0.63;0.63;;;;;;;;;;7423967;19;20152;-95
2023/05/19 18:56:58;;;;;;;0.75;0.70;;;;;;;;;;7422353;19;20141;-95
2023/05/19 18:59:25;;;;;;;0.77;0.73;;;;;;;;;;7427077;19;20136;-94
2023/05/19 19:01:52;;;;;;;0.63;0.63;;;;;;;;;;7423982;19;20136;-95
2023/05/19 19:04:20;;;;;;;0.40;0.40;;;;;;;;;;7421428;19;20168;-96
2023/05/19 19:06:51;;;;;;;0.73;0.73;;;;;;;;;;7425993;19;20144;-96
2023/05/19 19:09:18;;;;;;;1.00;0.93;;;;;;;;;;7426501;19;20140;-95
2023/05/19 19:11:44;;;;;;;1.27;1.02;;;;;;;;;;7423576;19;20139;-96
2023/05/19 19:14:11;;;;;;;0.68;0.68;;;;;;;;;;7423200;19;20157;-95
2023/05/19 19:16:38;;;;;;;1.30;1.20;;;;;;;;;;7424401;19;20136;-96
2023/05/19 19:19:05;;;;;;;1.55;1.00;;;;;;;;;;7426192;19;20129;-96
2023/05/19 19:21:38;;;;;;;0.65;0.65;;;;;;;;;;7424269;19;20458;-96
2023/05/19 19:24:16;;;;;;;1.05;0.98;;;;;;;;;;7393493;19;20196;-96
2023/05/19 19:26:53;;;;;;;0.95;0.95;;;;;;;;;;7424020;19;20148;-96
